sensor_id;sensor_type;location;lat;lon;timestamp;temperature;humidity
326;DHT22;150;52.352;14.058;2023-03-02T00:01:19;0.80;31.30
326;DHT22;150;52.352;14.058;2023-03-02T00:03:46;0.80;31.80
326;DHT22;150;52.352;14.058;2023-03-02T00:06:14;0.80;31.80
326;DHT22;150;52.352;14.058;2023-03-02T00:08:40;0.80;31.90
326;DHT22;150;52.352;14.058;2023-03-02T00:11:07;0.80;32.00
326;DHT22;150;52.352;14.058;2023-03-02T00:13:36;0.80;31.90
326;DHT22;150;52.352;14.058;2023-03-02T00:16:04;0.80;31.70
326;DHT22;150;52.352;14.058;2023-03-02T00:18:32;0.90;31.50
326;DHT22;150;52.352;14.058;2023-03-02T00:20:59;0.80;32.00
326;DHT22;150;52.352;14.058;2023-03-02T00:23:25;0.80;31.20
326;DHT22;150;52.352;14.058;2023-03-02T00:25:52;0.80;31.20
326;DHT22;150;52.352;14.058;2023-03-02T00:28:19;0.80;31.20
326;DHT22;150;52.352;14.058;2023-03-02T00:30:46;0.80;31.20
326;DHT22;150;52.352;14.058;2023-03-02T00:33:12;0.70;31.10
326;DHT22;150;52.352;14.058;2023-03-02T00:35:40;0.70;31.10
326;DHT22;150;52.352;14.058;2023-03-02T00:38:07;0.80;31.20
326;DHT22;150;52.352;14.058;2023-03-02T00:40:34;0.60;31.30
326;DHT22;150;52.352;14.058;2023-03-02T00:43:01;0.60;31.70
326;DHT22;150;52.352;14.058;2023-03-02T00:45:27;0.60;31.50
326;DHT22;150;52.352;14.058;2023-03-02T00:47:54;0.60;31.60
326;DHT22;150;52.352;14.058;2023-03-02T00:50:21;0.60;31.10
326;DHT22;150;52.352;14.058;2023-03-02T00:52:49;0.60;31.20
326;DHT22;150;52.352;14.058;2023-03-02T00:55:16;0.50;31.10
326;DHT22;150;52.352;14.058;2023-03-02T00:57:42;0.50;31.60
326;DHT22;150;52.352;14.058;2023-03-02T01:00:10;0.50;31.50
326;DHT22;150;52.352;14.058;2023-03-02T01:02:37;0.50;31.40
326;DHT22;150;52.352;14.058;2023-03-02T01:05:08;0.50;31.50
326;DHT22;150;52.352;14.058;2023-03-02T01:07:35;0.50;31.40
326;DHT22;150;52.352;14.058;2023-03-02T01:10:04;0.40;31.40
326;DHT22;150;52.352;14.058;2023-03-02T01:12:31;0.40;31.70
326;DHT22;150;52.352;14.058;2023-03-02T01:14:58;0.40;32.20
326;DHT22;150;52.352;14.058;2023-03-02T01:17:25;0.40;32.20
326;DHT22;150;52.352;14.058;2023-03-02T01:19:52;0.40;32.10
326;DHT22;150;52.352;14.058;2023-03-02T01:22:20;0.40;31.80
326;DHT22;150;52.352;14.058;2023-03-02T01:24:47;0.40;31.80
326;DHT22;150;52.352;14.058;2023-03-02T01:27:15;0.40;32.00
326;DHT22;150;52.352;14.058;2023-03-02T01:29:42;0.40;32.20
326;DHT22;150;52.352;14.058;2023-03-02T01:32:09;0.30;32.10
326;DHT22;150;52.352;14.058;2023-03-02T01:34:37;0.40;32.40
326;DHT22;150;52.352;14.058;2023-03-02T01:37:07;0.30;32.60
326;DHT22;150;52.352;14.058;2023-03-02T01:39:34;0.30;32.60
326;DHT22;150;52.352;14.058;2023-03-02T01:42:02;0.30;32.70
326;DHT22;150;52.352;14.058;2023-03-02T01:44:36;0.30;32.60
326;DHT22;150;52.352;14.058;2023-03-02T01:47:08;0.30;32.40
326;DHT22;150;52.352;14.058;2023-03-02T01:49:40;0.20;32.50
326;DHT22;150;52.352;14.058;2023-03-02T01:52:07;0.20;32.30
326;DHT22;150;52.352;14.058;2023-03-02T01:54:36;0.20;32.60
326;DHT22;150;52.352;14.058;2023-03-02T01:57:05;0.20;32.80
326;DHT22;150;52.352;14.058;2023-03-02T01:59:34;0.20;32.80
326;DHT22;150;52.352;14.058;2023-03-02T02:02:05;0.20;32.70
326;DHT22;150;52.352;14.058;2023-03-02T02:04:33;0.20;32.30
326;DHT22;150;52.352;14.058;2023-03-02T02:07:03;0.10;32.20
326;DHT22;150;52.352;14.058;2023-03-02T02:09:34;0.10;32.30
326;DHT22;150;52.352;14.058;2023-03-02T02:12:02;0.10;32.50
326;DHT22;150;52.352;14.058;2023-03-02T02:14:30;0.10;32.50
326;DHT22;150;52.352;14.058;2023-03-02T02:16:58;0.00;32.50
326;DHT22;150;52.352;14.058;2023-03-02T02:19:44;0.00;33.00
326;DHT22;150;52.352;14.058;2023-03-02T02:22:15;0.00;33.10
326;DHT22;150;52.352;14.058;2023-03-02T02:24:47;0.10;33.10
326;DHT22;150;52.352;14.058;2023-03-02T02:27:20;0.10;33.20
326;DHT22;150;52.352;14.058;2023-03-02T02:30:03;0.00;33.10
326;DHT22;150;52.352;14.058;2023-03-02T02:32:32;0.00;32.80
326;DHT22;150;52.352;14.058;2023-03-02T02:35:04;0.00;32.70
326;DHT22;150;52.352;14.058;2023-03-02T02:37:37;0.00;32.50
326;DHT22;150;52.352;14.058;2023-03-02T02:40:05;-0.10;32.50
326;DHT22;150;52.352;14.058;2023-03-02T02:42:42;-0.10;32.60
326;DHT22;150;52.352;14.058;2023-03-02T02:45:17;-0.10;33.10
326;DHT22;150;52.352;14.058;2023-03-02T02:47:45;-0.10;33.40
326;DHT22;150;52.352;14.058;2023-03-02T02:50:17;-0.10;33.50
326;DHT22;150;52.352;14.058;2023-03-02T02:52:45;-0.10;33.40
326;DHT22;150;52.352;14.058;2023-03-02T02:55:15;-0.10;32.90
326;DHT22;150;52.352;14.058;2023-03-02T02:57:49;-0.10;32.50
326;DHT22;150;52.352;14.058;2023-03-02T03:00:18;-0.10;33.00
326;DHT22;150;52.352;14.058;2023-03-02T03:02:50;-0.20;32.70
326;DHT22;150;52.352;14.058;2023-03-02T03:05:20;-0.20;32.10
326;DHT22;150;52.352;14.058;2023-03-02T03:07:50;-0.20;32.30
326;DHT22;150;52.352;14.058;2023-03-02T03:10:21;-0.20;32.40
326;DHT22;150;52.352;14.058;2023-03-02T03:12:51;-0.20;32.70
326;DHT22;150;52.352;14.058;2023-03-02T03:15:18;-0.20;32.90
326;DHT22;150;52.352;14.058;2023-03-02T03:17:52;-0.20;32.90
326;DHT22;150;52.352;14.058;2023-03-02T03:20:21;-0.30;33.00
326;DHT22;150;52.352;14.058;2023-03-02T03:22:48;-0.20;33.60
326;DHT22;150;52.352;14.058;2023-03-02T03:25:18;-0.30;33.30
326;DHT22;150;52.352;14.058;2023-03-02T03:27:45;-0.30;33.20
326;DHT22;150;52.352;14.058;2023-03-02T03:30:16;-0.30;33.10
326;DHT22;150;52.352;14.058;2023-03-02T03:32:42;-0.30;33.40
326;DHT22;150;52.352;14.058;2023-03-02T03:35:10;-0.30;33.30
326;DHT22;150;52.352;14.058;2023-03-02T03:37:40;-0.30;32.80
326;DHT22;150;52.352;14.058;2023-03-02T03:40:11;-0.30;32.50
326;DHT22;150;52.352;14.058;2023-03-02T03:42:38;-0.40;32.30
326;DHT22;150;52.352;14.058;2023-03-02T03:45:06;-0.40;32.60
326;DHT22;150;52.352;14.058;2023-03-02T03:47:35;-0.40;33.10
326;DHT22;150;52.352;14.058;2023-03-02T03:50:03;-0.40;33.00
326;DHT22;150;52.352;14.058;2023-03-02T03:52:30;-0.40;32.90
326;DHT22;150;52.352;14.058;2023-03-02T03:55:02;-0.40;33.30
326;DHT22;150;52.352;14.058;2023-03-02T03:57:29;-0.40;34.30
326;DHT22;150;52.352;14.058;2023-03-02T03:59:55;-0.50;33.40
326;DHT22;150;52.352;14.058;2023-03-02T04:02:22;-0.40;33.70
326;DHT22;150;52.352;14.058;2023-03-02T04:04:51;-0.40;33.40
326;DHT22;150;52.352;14.058;2023-03-02T04:07:19;-0.40;33.20
326;DHT22;150;52.352;14.058;2023-03-02T04:09:50;-0.40;33.70
326;DHT22;150;52.352;14.058;2023-03-02T04:12:31;-0.50;32.80
326;DHT22;150;52.352;14.058;2023-03-02T04:15:00;-0.50;33.00
326;DHT22;150;52.352;14.058;2023-03-02T04:17:29;-0.50;33.30
326;DHT22;150;52.352;14.058;2023-03-02T04:19:57;-0.60;33.00
326;DHT22;150;52.352;14.058;2023-03-02T04:22:24;-0.50;33.40
326;DHT22;150;52.352;14.058;2023-03-02T04:24:51;-0.50;33.70
326;DHT22;150;52.352;14.058;2023-03-02T04:27:18;-0.50;33.90
326;DHT22;150;52.352;14.058;2023-03-02T04:29:46;-0.50;33.70
326;DHT22;150;52.352;14.058;2023-03-02T04:32:14;-0.50;33.40
326;DHT22;150;52.352;14.058;2023-03-02T04:34:41;-0.50;33.50
326;DHT22;150;52.352;14.058;2023-03-02T04:37:09;-0.50;33.90
326;DHT22;150;52.352;14.058;2023-03-02T04:39:37;-0.50;33.90
326;DHT22;150;52.352;14.058;2023-03-02T04:42:04;-0.50;34.20
326;DHT22;150;52.352;14.058;2023-03-02T04:44:31;-0.50;34.30
326;DHT22;150;52.352;14.058;2023-03-02T04:46:59;-0.50;33.70
326;DHT22;150;52.352;14.058;2023-03-02T04:49:26;-0.50;33.80
326;DHT22;150;52.352;14.058;2023-03-02T04:51:53;-0.50;33.30
326;DHT22;150;52.352;14.058;2023-03-02T04:54:24;-0.60;33.00
326;DHT22;150;52.352;14.058;2023-03-02T04:56:51;-0.60;33.30
326;DHT22;150;52.352;14.058;2023-03-02T04:59:20;-0.60;33.40
326;DHT22;150;52.352;14.058;2023-03-02T05:01:50;-0.60;33.60
326;DHT22;150;52.352;14.058;2023-03-02T05:04:19;-0.60;33.60
326;DHT22;150;52.352;14.058;2023-03-02T05:06:46;-0.70;33.40
326;DHT22;150;52.352;14.058;2023-03-02T05:09:13;-0.70;33.30
326;DHT22;150;52.352;14.058;2023-03-02T05:11:41;-0.70;33.10
326;DHT22;150;52.352;14.058;2023-03-02T05:14:10;-0.70;33.40
326;DHT22;150;52.352;14.058;2023-03-02T05:16:39;-0.70;33.80
326;DHT22;150;52.352;14.058;2023-03-02T05:19:08;-0.70;33.90
326;DHT22;150;52.352;14.058;2023-03-02T05:21:34;-0.70;34.00
326;DHT22;150;52.352;14.058;2023-03-02T05:24:01;-0.80;33.60
326;DHT22;150;52.352;14.058;2023-03-02T05:26:28;-0.80;33.90
326;DHT22;150;52.352;14.058;2023-03-02T05:28:57;-0.80;33.90
326;DHT22;150;52.352;14.058;2023-03-02T05:31:28;-0.70;33.90
326;DHT22;150;52.352;14.058;2023-03-02T05:33:55;-0.80;34.10
326;DHT22;150;52.352;14.058;2023-03-02T05:36:22;-0.70;34.40
326;DHT22;150;52.352;14.058;2023-03-02T05:38:49;-0.70;34.80
326;DHT22;150;52.352;14.058;2023-03-02T05:41:16;-0.80;34.30
326;DHT22;150;52.352;14.058;2023-03-02T05:43:42;-0.70;34.30
326;DHT22;150;52.352;14.058;2023-03-02T05:46:11;-0.70;34.20
326;DHT22;150;52.352;14.058;2023-03-02T05:48:38;-0.70;34.20
326;DHT22;150;52.352;14.058;2023-03-02T05:51:06;-0.70;33.90
326;DHT22;150;52.352;14.058;2023-03-02T05:53:33;-0.70;33.90
326;DHT22;150;52.352;14.058;2023-03-02T05:55:59;-0.70;34.10
326;DHT22;150;52.352;14.058;2023-03-02T05:58:28;-0.70;34.20
326;DHT22;150;52.352;14.058;2023-03-02T06:00:55;-0.70;34.30
326;DHT22;150;52.352;14.058;2023-03-02T06:03:23;-0.70;34.10
326;DHT22;150;52.352;14.058;2023-03-02T06:05:49;-0.60;34.40
326;DHT22;150;52.352;14.058;2023-03-02T06:08:17;-0.60;34.50
326;DHT22;150;52.352;14.058;2023-03-02T06:10:44;-0.60;34.60
326;DHT22;150;52.352;14.058;2023-03-02T06:13:10;-0.50;34.70
326;DHT22;150;52.352;14.058;2023-03-02T06:15:39;-0.50;35.10
326;DHT22;150;52.352;14.058;2023-03-02T06:18:07;-0.30;35.50
326;DHT22;150;52.352;14.058;2023-03-02T06:20:38;-0.20;35.60
326;DHT22;150;52.352;14.058;2023-03-02T06:23:04;-0.10;35.70
326;DHT22;150;52.352;14.058;2023-03-02T06:25:31;0.00;36.70
326;DHT22;150;52.352;14.058;2023-03-02T06:28:00;0.20;37.80
326;DHT22;150;52.352;14.058;2023-03-02T06:30:27;0.30;38.50
326;DHT22;150;52.352;14.058;2023-03-02T06:32:53;0.50;38.90
326;DHT22;150;52.352;14.058;2023-03-02T06:35:20;0.60;39.00
326;DHT22;150;52.352;14.058;2023-03-02T06:37:49;0.80;39.20
326;DHT22;150;52.352;14.058;2023-03-02T06:40:16;0.90;39.30
326;DHT22;150;52.352;14.058;2023-03-02T06:42:43;1.00;39.10
326;DHT22;150;52.352;14.058;2023-03-02T06:45:10;1.20;39.50
326;DHT22;150;52.352;14.058;2023-03-02T06:47:37;1.30;39.80
326;DHT22;150;52.352;14.058;2023-03-02T06:50:05;1.30;40.90
326;DHT22;150;52.352;14.058;2023-03-02T06:52:32;1.20;42.40
326;DHT22;150;52.352;14.058;2023-03-02T06:55:00;1.10;44.20
326;DHT22;150;52.352;14.058;2023-03-02T06:57:27;1.10;45.60
326;DHT22;150;52.352;14.058;2023-03-02T06:59:58;1.00;46.30
326;DHT22;150;52.352;14.058;2023-03-02T07:02:25;1.00;46.90
326;DHT22;150;52.352;14.058;2023-03-02T07:04:52;0.90;48.30
326;DHT22;150;52.352;14.058;2023-03-02T07:07:21;0.90;49.10
326;DHT22;150;52.352;14.058;2023-03-02T07:09:48;1.00;49.40
326;DHT22;150;52.352;14.058;2023-03-02T07:12:16;1.10;49.60
326;DHT22;150;52.352;14.058;2023-03-02T07:14:42;1.30;49.50
326;DHT22;150;52.352;14.058;2023-03-02T07:17:09;1.40;49.70
326;DHT22;150;52.352;14.058;2023-03-02T07:19:36;1.50;49.00
326;DHT22;150;52.352;14.058;2023-03-02T07:22:04;1.50;48.60
326;DHT22;150;52.352;14.058;2023-03-02T07:24:31;1.40;49.30
326;DHT22;150;52.352;14.058;2023-03-02T07:26:57;1.60;49.80
326;DHT22;150;52.352;14.058;2023-03-02T07:29:28;1.70;50.10
326;DHT22;150;52.352;14.058;2023-03-02T07:31:55;1.80;49.30
326;DHT22;150;52.352;14.058;2023-03-02T07:34:25;1.80;48.40
326;DHT22;150;52.352;14.058;2023-03-02T07:36:52;1.80;47.90
326;DHT22;150;52.352;14.058;2023-03-02T07:39:19;1.90;48.30
326;DHT22;150;52.352;14.058;2023-03-02T07:41:46;1.90;49.20
326;DHT22;150;52.352;14.058;2023-03-02T07:44:13;2.00;49.00
326;DHT22;150;52.352;14.058;2023-03-02T07:46:41;2.20;48.30
326;DHT22;150;52.352;14.058;2023-03-02T07:49:08;2.10;47.80
326;DHT22;150;52.352;14.058;2023-03-02T07:51:34;2.10;47.60
326;DHT22;150;52.352;14.058;2023-03-02T07:54:01;2.10;47.80
326;DHT22;150;52.352;14.058;2023-03-02T07:56:29;2.20;48.60
326;DHT22;150;52.352;14.058;2023-03-02T07:58:56;2.10;47.80
326;DHT22;150;52.352;14.058;2023-03-02T08:01:22;2.00;47.90
326;DHT22;150;52.352;14.058;2023-03-02T08:03:50;2.00;49.90
326;DHT22;150;52.352;14.058;2023-03-02T08:06:17;2.20;49.50
326;DHT22;150;52.352;14.058;2023-03-02T08:08:44;2.30;49.10
326;DHT22;150;52.352;14.058;2023-03-02T08:11:12;2.40;48.00
326;DHT22;150;52.352;14.058;2023-03-02T08:13:40;2.40;48.00
326;DHT22;150;52.352;14.058;2023-03-02T08:16:08;2.40;48.00
326;DHT22;150;52.352;14.058;2023-03-02T08:18:36;2.30;47.90
326;DHT22;150;52.352;14.058;2023-03-02T08:21:08;2.30;47.60
326;DHT22;150;52.352;14.058;2023-03-02T08:23:36;2.20;47.90
326;DHT22;150;52.352;14.058;2023-03-02T08:26:03;2.10;48.20
326;DHT22;150;52.352;14.058;2023-03-02T08:28:29;1.90;49.00
326;DHT22;150;52.352;14.058;2023-03-02T08:30:57;2.00;49.60
326;DHT22;150;52.352;14.058;2023-03-02T08:33:25;1.80;50.50
326;DHT22;150;52.352;14.058;2023-03-02T08:35:55;1.90;50.80
326;DHT22;150;52.352;14.058;2023-03-02T08:38:23;2.10;50.80
326;DHT22;150;52.352;14.058;2023-03-02T08:40:50;2.20;50.50
326;DHT22;150;52.352;14.058;2023-03-02T08:43:17;2.20;49.80
326;DHT22;150;52.352;14.058;2023-03-02T08:45:44;2.30;49.30
326;DHT22;150;52.352;14.058;2023-03-02T08:48:11;2.30;48.80
326;DHT22;150;52.352;14.058;2023-03-02T08:50:37;2.20;48.50
326;DHT22;150;52.352;14.058;2023-03-02T08:53:04;2.30;48.60
326;DHT22;150;52.352;14.058;2023-03-02T08:55:35;2.30;47.90
326;DHT22;150;52.352;14.058;2023-03-02T08:58:02;2.30;48.50
326;DHT22;150;52.352;14.058;2023-03-02T09:00:29;2.40;48.00
326;DHT22;150;52.352;14.058;2023-03-02T09:02:56;2.40;48.00
326;DHT22;150;52.352;14.058;2023-03-02T09:05:22;2.20;48.50
326;DHT22;150;52.352;14.058;2023-03-02T09:07:49;2.30;49.20
326;DHT22;150;52.352;14.058;2023-03-02T09:10:15;2.50;48.80
326;DHT22;150;52.352;14.058;2023-03-02T09:12:43;2.60;48.20
326;DHT22;150;52.352;14.058;2023-03-02T09:15:10;2.80;48.70
326;DHT22;150;52.352;14.058;2023-03-02T09:17:37;3.10;47.40
326;DHT22;150;52.352;14.058;2023-03-02T09:20:04;2.90;45.00
326;DHT22;150;52.352;14.058;2023-03-02T09:22:31;2.80;45.20
326;DHT22;150;52.352;14.058;2023-03-02T09:25:00;2.80;45.90
326;DHT22;150;52.352;14.058;2023-03-02T09:27:26;2.80;45.70
326;DHT22;150;52.352;14.058;2023-03-02T09:29:55;3.00;45.70
326;DHT22;150;52.352;14.058;2023-03-02T09:32:21;3.00;44.40
326;DHT22;150;52.352;14.058;2023-03-02T09:34:48;2.90;44.00
326;DHT22;150;52.352;14.058;2023-03-02T09:37:15;2.90;44.80
326;DHT22;150;52.352;14.058;2023-03-02T09:39:42;2.80;44.80
326;DHT22;150;52.352;14.058;2023-03-02T09:42:46;2.50;46.70
326;DHT22;150;52.352;14.058;2023-03-02T09:45:24;2.50;48.10
326;DHT22;150;52.352;14.058;2023-03-02T09:48:02;2.60;47.60
326;DHT22;150;52.352;14.058;2023-03-02T09:50:31;2.60;48.60
326;DHT22;150;52.352;14.058;2023-03-02T09:53:27;2.90;48.40
326;DHT22;150;52.352;14.058;2023-03-02T09:55:57;3.20;47.70
326;DHT22;150;52.352;14.058;2023-03-02T09:58:29;3.40;45.70
326;DHT22;150;52.352;14.058;2023-03-02T10:01:00;3.50;44.90
326;DHT22;150;52.352;14.058;2023-03-02T10:03:34;3.40;43.00
326;DHT22;150;52.352;14.058;2023-03-02T10:06:01;2.80;44.50
326;DHT22;150;52.352;14.058;2023-03-02T10:08:33;2.50;47.30
326;DHT22;150;52.352;14.058;2023-03-02T10:11:05;2.50;47.20
326;DHT22;150;52.352;14.058;2023-03-02T10:13:36;2.60;46.90
326;DHT22;150;52.352;14.058;2023-03-02T10:16:15;2.60;47.30
326;DHT22;150;52.352;14.058;2023-03-02T10:18:48;2.40;48.00
326;DHT22;150;52.352;14.058;2023-03-02T10:21:20;2.70;48.60
326;DHT22;150;52.352;14.058;2023-03-02T10:23:54;2.90;47.80
326;DHT22;150;52.352;14.058;2023-03-02T10:26:31;3.00;47.30
326;DHT22;150;52.352;14.058;2023-03-02T10:29:04;3.10;47.20
326;DHT22;150;52.352;14.058;2023-03-02T10:31:39;3.20;45.00
326;DHT22;150;52.352;14.058;2023-03-02T10:34:08;3.10;45.20
326;DHT22;150;52.352;14.058;2023-03-02T10:36:37;3.30;44.90
326;DHT22;150;52.352;14.058;2023-03-02T10:39:09;3.30;44.70
326;DHT22;150;52.352;14.058;2023-03-02T10:41:42;3.20;45.00
326;DHT22;150;52.352;14.058;2023-03-02T10:44:16;3.10;45.30
326;DHT22;150;52.352;14.058;2023-03-02T10:46:46;3.00;45.40
326;DHT22;150;52.352;14.058;2023-03-02T10:49:23;3.00;45.60
326;DHT22;150;52.352;14.058;2023-03-02T10:51:58;3.00;46.00
326;DHT22;150;52.352;14.058;2023-03-02T10:54:25;2.80;47.80
326;DHT22;150;52.352;14.058;2023-03-02T10:56:55;2.90;48.30
326;DHT22;150;52.352;14.058;2023-03-02T10:59:41;3.10;48.40
326;DHT22;150;52.352;14.058;2023-03-02T11:02:19;3.20;45.80
326;DHT22;150;52.352;14.058;2023-03-02T11:04:49;3.30;45.20
326;DHT22;150;52.352;14.058;2023-03-02T11:07:19;3.40;45.00
326;DHT22;150;52.352;14.058;2023-03-02T11:10:00;3.40;43.80
326;DHT22;150;52.352;14.058;2023-03-02T11:12:28;3.20;44.80
326;DHT22;150;52.352;14.058;2023-03-02T11:15:17;3.20;44.60
326;DHT22;150;52.352;14.058;2023-03-02T11:17:48;3.00;45.90
326;DHT22;150;52.352;14.058;2023-03-02T11:20:20;3.30;46.70
326;DHT22;150;52.352;14.058;2023-03-02T11:22:55;3.30;44.90
326;DHT22;150;52.352;14.058;2023-03-02T11:25:27;3.30;45.50
326;DHT22;150;52.352;14.058;2023-03-02T11:27:58;3.40;44.70
326;DHT22;150;52.352;14.058;2023-03-02T11:30:26;3.50;43.80
326;DHT22;150;52.352;14.058;2023-03-02T11:33:01;3.30;44.60
326;DHT22;150;52.352;14.058;2023-03-02T11:35:32;3.40;44.50
326;DHT22;150;52.352;14.058;2023-03-02T11:38:03;3.10;46.20
326;DHT22;150;52.352;14.058;2023-03-02T11:40:35;3.30;45.10
326;DHT22;150;52.352;14.058;2023-03-02T11:43:09;3.00;45.70
326;DHT22;150;52.352;14.058;2023-03-02T11:45:41;2.80;46.80
326;DHT22;150;52.352;14.058;2023-03-02T11:48:17;2.90;47.50
326;DHT22;150;52.352;14.058;2023-03-02T11:50:53;3.00;47.20
326;DHT22;150;52.352;14.058;2023-03-02T11:53:20;3.30;47.20
326;DHT22;150;52.352;14.058;2023-03-02T11:55:48;3.50;46.40
326;DHT22;150;52.352;14.058;2023-03-02T11:58:17;3.60;44.60
326;DHT22;150;52.352;14.058;2023-03-02T12:00:45;3.50;43.80
326;DHT22;150;52.352;14.058;2023-03-02T12:03:36;3.60;43.90
326;DHT22;150;52.352;14.058;2023-03-02T12:06:05;3.50;43.80
326;DHT22;150;52.352;14.058;2023-03-02T12:08:36;3.50;44.60
326;DHT22;150;52.352;14.058;2023-03-02T12:11:04;3.60;43.90
326;DHT22;150;52.352;14.058;2023-03-02T12:13:32;3.80;44.10
326;DHT22;150;52.352;14.058;2023-03-02T12:16:00;4.10;44.30
326;DHT22;150;52.352;14.058;2023-03-02T12:18:30;4.20;43.00
326;DHT22;150;52.352;14.058;2023-03-02T12:20:59;4.00;41.90
326;DHT22;150;52.352;14.058;2023-03-02T12:23:26;3.70;42.50
326;DHT22;150;52.352;14.058;2023-03-02T12:26:02;3.70;43.90
326;DHT22;150;52.352;14.058;2023-03-02T12:28:33;3.70;43.20
326;DHT22;150;52.352;14.058;2023-03-02T12:31:06;3.70;43.80
326;DHT22;150;52.352;14.058;2023-03-02T12:33:41;3.80;44.80
326;DHT22;150;52.352;14.058;2023-03-02T12:36:14;3.90;44.10
326;DHT22;150;52.352;14.058;2023-03-02T12:38:45;4.10;43.50
326;DHT22;150;52.352;14.058;2023-03-02T12:41:25;4.20;42.80
326;DHT22;150;52.352;14.058;2023-03-02T12:44:06;4.20;42.10
326;DHT22;150;52.352;14.058;2023-03-02T12:46:36;4.30;42.40
326;DHT22;150;52.352;14.058;2023-03-02T12:49:23;4.30;41.80
326;DHT22;150;52.352;14.058;2023-03-02T12:51:54;4.30;41.70
326;DHT22;150;52.352;14.058;2023-03-02T12:54:24;4.20;41.60
326;DHT22;150;52.352;14.058;2023-03-02T12:57:05;4.30;42.00
326;DHT22;150;52.352;14.058;2023-03-02T12:59:34;3.60;43.90
326;DHT22;150;52.352;14.058;2023-03-02T13:02:19;3.60;44.80
326;DHT22;150;52.352;14.058;2023-03-02T13:04:53;3.60;45.00
326;DHT22;150;52.352;14.058;2023-03-02T13:07:23;3.40;46.10
326;DHT22;150;52.352;14.058;2023-03-02T13:09:52;3.30;46.60
326;DHT22;150;52.352;14.058;2023-03-02T13:12:19;3.00;47.90
326;DHT22;150;52.352;14.058;2023-03-02T13:14:49;3.20;48.00
326;DHT22;150;52.352;14.058;2023-03-02T13:17:22;3.00;48.50
326;DHT22;150;52.352;14.058;2023-03-02T13:19:51;3.20;48.70
326;DHT22;150;52.352;14.058;2023-03-02T13:22:18;3.40;48.30
326;DHT22;150;52.352;14.058;2023-03-02T13:24:50;3.30;47.40
326;DHT22;150;52.352;14.058;2023-03-02T13:27:22;3.10;46.90
326;DHT22;150;52.352;14.058;2023-03-02T13:29:49;3.00;48.50
326;DHT22;150;52.352;14.058;2023-03-02T13:32:19;3.10;48.60
326;DHT22;150;52.352;14.058;2023-03-02T13:34:48;2.90;49.00
326;DHT22;150;52.352;14.058;2023-03-02T13:37:20;3.00;49.50
326;DHT22;150;52.352;14.058;2023-03-02T13:39:55;3.00;48.50
326;DHT22;150;52.352;14.058;2023-03-02T13:42:27;2.90;49.40
326;DHT22;150;52.352;14.058;2023-03-02T13:44:54;2.80;49.60
326;DHT22;150;52.352;14.058;2023-03-02T13:47:23;2.80;49.20
326;DHT22;150;52.352;14.058;2023-03-02T13:49:49;2.80;49.90
326;DHT22;150;52.352;14.058;2023-03-02T13:52:22;2.70;51.20
326;DHT22;150;52.352;14.058;2023-03-02T13:54:51;2.60;50.90
326;DHT22;150;52.352;14.058;2023-03-02T13:57:22;2.80;51.10
326;DHT22;150;52.352;14.058;2023-03-02T13:59:50;2.80;50.70
326;DHT22;150;52.352;14.058;2023-03-02T14:02:22;2.60;50.80
326;DHT22;150;52.352;14.058;2023-03-02T14:04:55;2.60;52.70
326;DHT22;150;52.352;14.058;2023-03-02T14:07:23;2.90;51.50
326;DHT22;150;52.352;14.058;2023-03-02T14:09:49;2.80;50.20
326;DHT22;150;52.352;14.058;2023-03-02T14:12:22;2.80;50.90
326;DHT22;150;52.352;14.058;2023-03-02T14:14:50;2.60;51.20
326;DHT22;150;52.352;14.058;2023-03-02T14:17:22;2.70;51.70
326;DHT22;150;52.352;14.058;2023-03-02T14:19:49;2.80;51.10
326;DHT22;150;52.352;14.058;2023-03-02T14:22:18;2.60;50.40
326;DHT22;150;52.352;14.058;2023-03-02T14:24:49;2.60;52.20
326;DHT22;150;52.352;14.058;2023-03-02T14:27:16;2.60;51.10
326;DHT22;150;52.352;14.058;2023-03-02T14:29:45;2.40;52.10
326;DHT22;150;52.352;14.058;2023-03-02T14:32:14;2.40;51.90
326;DHT22;150;52.352;14.058;2023-03-02T14:34:41;2.10;53.20
326;DHT22;150;52.352;14.058;2023-03-02T14:37:11;2.20;54.20
326;DHT22;150;52.352;14.058;2023-03-02T14:39:40;2.30;53.80
326;DHT22;150;52.352;14.058;2023-03-02T14:42:11;2.40;53.00
326;DHT22;150;52.352;14.058;2023-03-02T14:44:38;2.30;53.20
326;DHT22;150;52.352;14.058;2023-03-02T14:47:05;2.20;53.80
326;DHT22;150;52.352;14.058;2023-03-02T14:49:34;2.10;53.70
326;DHT22;150;52.352;14.058;2023-03-02T14:52:04;2.10;53.90
326;DHT22;150;52.352;14.058;2023-03-02T14:54:37;2.10;54.70
326;DHT22;150;52.352;14.058;2023-03-02T14:57:14;2.20;54.00
326;DHT22;150;52.352;14.058;2023-03-02T14:59:42;2.20;53.80
326;DHT22;150;52.352;14.058;2023-03-02T15:02:09;2.10;54.60
326;DHT22;150;52.352;14.058;2023-03-02T15:04:36;2.10;54.80
326;DHT22;150;52.352;14.058;2023-03-02T15:07:03;2.30;54.20
326;DHT22;150;52.352;14.058;2023-03-02T15:09:29;2.40;54.00
326;DHT22;150;52.352;14.058;2023-03-02T15:11:56;2.50;53.60
326;DHT22;150;52.352;14.058;2023-03-02T15:14:24;2.60;52.80
326;DHT22;150;52.352;14.058;2023-03-02T15:16:51;2.70;52.40
326;DHT22;150;52.352;14.058;2023-03-02T15:19:17;2.60;51.70
326;DHT22;150;52.352;14.058;2023-03-02T15:21:44;2.80;52.50
326;DHT22;150;52.352;14.058;2023-03-02T15:24:11;2.80;51.30
326;DHT22;150;52.352;14.058;2023-03-02T15:26:38;2.80;50.50
326;DHT22;150;52.352;14.058;2023-03-02T15:29:05;2.70;50.30
326;DHT22;150;52.352;14.058;2023-03-02T15:31:34;2.80;51.20
326;DHT22;150;52.352;14.058;2023-03-02T15:34:03;2.80;50.60
326;DHT22;150;52.352;14.058;2023-03-02T15:36:31;2.60;51.00
326;DHT22;150;52.352;14.058;2023-03-02T15:38:57;2.50;51.80
326;DHT22;150;52.352;14.058;2023-03-02T15:41:24;2.60;52.20
326;DHT22;150;52.352;14.058;2023-03-02T15:43:52;2.60;51.80
326;DHT22;150;52.352;14.058;2023-03-02T15:46:19;2.40;52.30
326;DHT22;150;52.352;14.058;2023-03-02T15:48:48;2.20;53.50
326;DHT22;150;52.352;14.058;2023-03-02T15:51:16;2.10;53.80
326;DHT22;150;52.352;14.058;2023-03-02T15:53:45;2.00;54.80
326;DHT22;150;52.352;14.058;2023-03-02T15:56:13;2.00;55.80
326;DHT22;150;52.352;14.058;2023-03-02T15:58:45;2.00;55.20
326;DHT22;150;52.352;14.058;2023-03-02T16:01:12;2.10;55.60
326;DHT22;150;52.352;14.058;2023-03-02T16:03:40;2.10;55.40
326;DHT22;150;52.352;14.058;2023-03-02T16:06:08;1.90;56.00
326;DHT22;150;52.352;14.058;2023-03-02T16:08:36;1.90;56.30
326;DHT22;150;52.352;14.058;2023-03-02T16:11:08;2.00;56.50
326;DHT22;150;52.352;14.058;2023-03-02T16:13:35;2.00;56.60
326;DHT22;150;52.352;14.058;2023-03-02T16:16:03;2.00;56.70
326;DHT22;150;52.352;14.058;2023-03-02T16:18:31;2.10;56.60
326;DHT22;150;52.352;14.058;2023-03-02T16:20:58;2.10;56.50
326;DHT22;150;52.352;14.058;2023-03-02T16:23:28;2.20;55.90
326;DHT22;150;52.352;14.058;2023-03-02T16:26:04;2.20;55.20
326;DHT22;150;52.352;14.058;2023-03-02T16:28:30;2.10;54.80
326;DHT22;150;52.352;14.058;2023-03-02T16:31:02;2.10;54.80
326;DHT22;150;52.352;14.058;2023-03-02T16:33:28;1.90;56.00
326;DHT22;150;52.352;14.058;2023-03-02T16:35:55;1.90;56.50
326;DHT22;150;52.352;14.058;2023-03-02T16:38:22;2.00;56.90
326;DHT22;150;52.352;14.058;2023-03-02T16:40:50;2.00;56.10
326;DHT22;150;52.352;14.058;2023-03-02T16:43:17;2.00;55.80
326;DHT22;150;52.352;14.058;2023-03-02T16:45:44;2.10;55.60